Time;durP1;ratioP1;P1;durP2;ratioP2;P2;SDS_P1;SDS_P2;PMS_P1;PMS_P2;Temp;Humidity;BMP_temperature;BMP_pressure;BME280_temperature;BME280_humidity;BME280_pressure;Samples;Min_cycle;Max_cycle;Signal;HPM_P1;HPM_P2
2021/06/17 00:00:22;;;;;;;14.65;9.45;;;21.50;99.90;;;;;;5048379;28;20498;-56
2021/06/17 00:02:48;;;;;;;18.95;9.38;;;21.40;99.90;;;;;;5029963;28;20486;-59
2021/06/17 00:05:17;;;;;;;15.32;9.88;;;21.40;99.90;;;;;;5046678;28;20102;-53
2021/06/17 00:07:44;;;;;;;13.20;9.07;;;21.50;99.90;;;;;;5045709;28;20044;-58
2021/06/17 00:10:25;;;;;;;10.35;9.20;;;21.40;99.90;;;;;;5047943;28;20032;-57
2021/06/17 00:12:51;;;;;;;17.25;11.63;;;21.40;99.90;;;;;;5040980;28;20502;-60
2021/06/17 00:15:18;;;;;;;13.07;9.40;;;21.40;99.90;;;;;;5047207;28;20025;-58
2021/06/17 00:17:45;;;;;;;19.92;9.50;;;21.40;99.90;;;;;;5049499;28;20442;-58
2021/06/17 00:20:11;;;;;;;13.38;9.30;;;21.30;99.90;;;;;;5044906;28;20110;-59
2021/06/17 00:22:37;;;;;;;12.07;9.52;;;21.30;99.90;;;;;;5049467;28;20048;-57
2021/06/17 00:25:04;;;;;;;15.93;9.98;;;21.30;99.90;;;;;;5049194;28;20056;-58
2021/06/17 00:27:30;;;;;;;12.93;8.77;;;21.30;99.90;;;;;;5049234;28;20104;-54
2021/06/17 00:29:55;;;;;;;11.80;8.85;;;21.30;99.90;;;;;;5048543;28;20112;-52
2021/06/17 00:32:21;;;;;;;14.60;8.95;;;21.20;99.90;;;;;;5048451;28;20044;-59
2021/06/17 00:34:46;;;;;;;14.25;9.48;;;21.20;99.90;;;;;;5046936;28;20106;-51
2021/06/17 00:37:12;;;;;;;14.30;8.63;;;21.10;99.90;;;;;;5047361;28;20040;-55
2021/06/17 00:39:40;;;;;;;13.13;8.95;;;21.10;99.90;;;;;;5044434;28;20041;-52
2021/06/17 00:42:06;;;;;;;12.00;9.50;;;21.10;99.90;;;;;;5049156;28;20033;-57
2021/06/17 00:44:32;;;;;;;13.60;8.35;;;21.10;99.90;;;;;;5040961;28;20025;-59
2021/06/17 00:46:57;;;;;;;12.60;9.52;;;21.10;99.90;;;;;;5046971;28;20044;-59
2021/06/17 00:49:23;;;;;;;16.02;10.20;;;21.10;99.90;;;;;;5046754;28;20029;-54
2021/06/17 00:51:48;;;;;;;16.40;9.40;;;21.10;99.90;;;;;;5048267;28;20025;-58
2021/06/17 00:54:31;;;;;;;13.13;8.90;;;21.00;99.90;;;;;;5047896;28;20096;-55
2021/06/17 00:57:01;;;;;;;10.73;9.15;;;21.00;99.90;;;;;;5042573;28;20033;-55
2021/06/17 00:59:26;;;;;;;14.40;9.35;;;21.00;99.90;;;;;;5046736;28;20044;-57
2021/06/17 01:01:52;;;;;;;14.23;10.02;;;21.00;99.90;;;;;;5047682;28;20487;-58
2021/06/17 01:04:17;;;;;;;22.65;9.35;;;20.90;99.90;;;;;;5048045;28;20036;-58
2021/06/17 01:06:43;;;;;;;11.98;9.05;;;20.90;99.90;;;;;;5048274;28;20029;-57
2021/06/17 01:09:17;;;;;;;12.77;9.07;;;20.90;99.90;;;;;;5047380;28;20553;-54
2021/06/17 01:12:03;;;;;;;14.13;9.40;;;20.80;99.90;;;;;;5043467;23;20104;-60
2021/06/17 01:14:37;;;;;;;10.20;8.73;;;20.80;99.90;;;;;;5007251;28;20025;-60
2021/06/17 01:17:12;;;;;;;14.20;9.82;;;20.80;99.90;;;;;;5011789;28;20030;-61
2021/06/17 01:20:06;;;;;;;14.95;8.68;;;20.80;99.90;;;;;;5018685;28;20036;-60
2021/06/17 01:22:37;;;;;;;14.85;9.45;;;20.80;99.90;;;;;;5002001;28;20450;-62
2021/06/17 01:25:13;;;;;;;12.90;9.48;;;20.80;99.90;;;;;;5016427;28;20033;-57
2021/06/17 01:28:04;;;;;;;21.40;10.20;;;20.70;99.90;;;;;;5030028;28;20028;-61
2021/06/17 01:30:32;;;;;;;15.07;9.88;;;20.70;99.90;;;;;;5020095;28;20025;-60
2021/06/17 01:33:01;;;;;;;14.88;8.95;;;20.70;99.90;;;;;;5013239;28;20061;-61
2021/06/17 01:35:31;;;;;;;12.75;9.85;;;20.70;99.90;;;;;;5014758;28;20034;-58
2021/06/17 01:38:00;;;;;;;13.25;9.15;;;20.60;99.90;;;;;;5019072;28;20037;-60
2021/06/17 01:40:28;;;;;;;14.45;10.43;;;20.60;99.90;;;;;;5016281;28;20025;-59
2021/06/17 01:42:55;;;;;;;12.10;9.43;;;20.60;99.90;;;;;;5011823;28;20030;-58
2021/06/17 01:45:22;;;;;;;13.10;10.02;;;20.50;99.90;;;;;;5021670;28;20443;-61
2021/06/17 01:47:51;;;;;;;15.52;9.57;;;20.50;99.90;;;;;;5026341;28;20029;-61
2021/06/17 01:50:17;;;;;;;14.90;9.05;;;20.50;99.90;;;;;;5017062;28;20404;-62
2021/06/17 01:52:44;;;;;;;11.18;8.63;;;20.50;99.90;;;;;;5014232;28;20042;-61
2021/06/17 01:55:10;;;;;;;11.07;9.52;;;20.50;99.90;;;;;;5012113;28;20026;-58
2021/06/17 01:57:38;;;;;;;14.63;9.63;;;20.40;99.90;;;;;;5015295;28;20048;-61
2021/06/17 02:00:05;;;;;;;12.60;9.25;;;20.40;99.90;;;;;;5023295;28;20060;-60
2021/06/17 02:02:32;;;;;;;13.75;9.35;;;20.40;99.90;;;;;;5014456;28;20092;-59
2021/06/17 02:04:59;;;;;;;11.20;9.38;;;20.40;99.90;;;;;;5012177;28;20112;-61
2021/06/17 02:07:25;;;;;;;11.70;9.15;;;20.40;99.90;;;;;;5013736;28;20541;-60
2021/06/17 02:09:51;;;;;;;17.77;10.23;;;20.40;99.90;;;;;;5023038;28;20021;-61
2021/06/17 02:12:18;;;;;;;14.25;9.32;;;20.40;99.90;;;;;;5021050;28;20175;-58
2021/06/17 02:14:45;;;;;;;12.40;9.90;;;20.40;99.90;;;;;;5022562;28;20560;-61
2021/06/17 02:17:14;;;;;;;15.52;9.90;;;20.40;99.90;;;;;;5009785;28;20034;-60
2021/06/17 02:19:40;;;;;;;14.90;9.70;;;20.30;99.90;;;;;;5016381;28;20025;-60
2021/06/17 02:22:07;;;;;;;11.95;9.60;;;20.40;99.90;;;;;;5009854;28;20396;-59
2021/06/17 02:24:37;;;;;;;11.30;9.13;;;20.40;99.90;;;;;;5020256;28;20044;-62
2021/06/17 02:27:13;;;;;;;11.35;9.43;;;20.40;99.90;;;;;;5019480;28;20037;-62
2021/06/17 02:29:44;;;;;;;11.25;9.05;;;20.40;99.90;;;;;;5020169;28;20581;-59
2021/06/17 02:32:15;;;;;;;16.70;9.80;;;20.40;99.90;;;;;;5014412;28;20528;-60
2021/06/17 02:34:43;;;;;;;9.60;8.20;;;20.40;99.90;;;;;;5019043;28;20345;-58
2021/06/17 02:37:09;;;;;;;11.15;9.00;;;20.40;99.90;;;;;;5012311;28;20159;-62
2021/06/17 02:39:35;;;;;;;12.63;8.38;;;20.40;99.90;;;;;;5014411;28;20034;-61
2021/06/17 02:42:02;;;;;;;12.85;8.35;;;20.40;99.90;;;;;;5015654;28;20026;-60
2021/06/17 02:44:30;;;;;;;13.82;8.70;;;20.40;99.90;;;;;;5010968;28;20045;-59
2021/06/17 02:46:55;;;;;;;14.00;9.00;;;20.40;99.90;;;;;;5010767;28;20025;-60
2021/06/17 02:49:21;;;;;;;13.13;9.40;;;20.40;99.90;;;;;;5020001;28;20013;-60
2021/06/17 02:51:47;;;;;;;12.70;9.05;;;20.40;99.90;;;;;;5010827;28;20143;-60
2021/06/17 02:54:18;;;;;;;13.52;9.48;;;20.30;99.90;;;;;;5021855;28;20044;-62
2021/06/17 02:57:12;;;;;;;15.10;9.20;;;20.30;99.90;;;;;;5019192;28;20103;-62
2021/06/17 02:59:40;;;;;;;11.85;8.80;;;20.40;99.90;;;;;;5020676;28;20111;-60
2021/06/17 03:02:15;;;;;;;13.98;8.57;;;20.30;99.90;;;;;;5010319;28;20030;-60
2021/06/17 03:04:48;;;;;;;13.60;8.70;;;20.40;99.90;;;;;;5017999;28;20368;-58
2021/06/17 03:07:21;;;;;;;13.30;8.90;;;20.30;99.90;;;;;;5010699;28;20030;-60
2021/06/17 03:09:50;;;;;;;17.00;8.57;;;20.30;99.90;;;;;;5022603;28;20029;-60
2021/06/17 03:12:22;;;;;;;17.25;9.10;;;20.30;99.90;;;;;;5018764;28;20029;-58
2021/06/17 03:14:50;;;;;;;13.20;8.93;;;20.30;99.90;;;;;;5014776;28;20036;-58
2021/06/17 03:17:19;;;;;;;11.68;8.02;;;20.30;99.90;;;;;;5011314;28;20119;-59
2021/06/17 03:19:48;;;;;;;11.23;8.30;;;20.20;99.90;;;;;;5018211;28;20033;-60
2021/06/17 03:22:15;;;;;;;13.25;9.02;;;20.20;99.90;;;;;;5012452;28;20034;-60
2021/06/17 03:24:43;;;;;;;12.88;9.00;;;20.20;99.90;;;;;;5015722;28;20432;-58
2021/06/17 03:27:10;;;;;;;12.02;8.77;;;20.20;99.90;;;;;;5015966;28;20056;-60
2021/06/17 03:29:44;;;;;;;10.73;8.60;;;20.20;99.90;;;;;;5018372;28;20060;-59
2021/06/17 03:32:11;;;;;;;13.53;8.40;;;20.10;99.90;;;;;;5013901;28;20053;-60
2021/06/17 03:34:39;;;;;;;12.25;8.35;;;20.10;99.90;;;;;;5014349;28;20038;-57
2021/06/17 03:37:06;;;;;;;13.27;9.65;;;20.10;99.90;;;;;;5007386;28;20112;-61
2021/06/17 03:39:32;;;;;;;10.77;9.20;;;20.10;99.90;;;;;;5008818;28;20072;-58
2021/06/17 03:42:00;;;;;;;17.83;9.32;;;20.00;99.90;;;;;;5018535;28;20388;-61
2021/06/17 03:44:28;;;;;;;12.48;9.10;;;20.00;99.90;;;;;;5020146;28;20288;-60
2021/06/17 03:46:56;;;;;;;14.50;9.50;;;20.10;99.90;;;;;;5019706;28;20064;-56
2021/06/17 03:49:23;;;;;;;14.68;8.35;;;20.00;99.90;;;;;;5029174;28;20021;-60
2021/06/17 03:51:49;;;;;;;13.05;8.95;;;20.10;99.90;;;;;;5016052;28;20033;-60
2021/06/17 03:54:24;;;;;;;12.45;8.27;;;20.00;99.90;;;;;;5020105;28;20037;-62
2021/06/17 03:56:55;;;;;;;12.20;8.77;;;20.00;99.90;;;;;;5010268;28;20076;-60
2021/06/17 03:59:29;;;;;;;16.08;8.80;;;20.00;99.90;;;;;;5008677;28;20504;-62
2021/06/17 04:01:55;;;;;;;14.07;8.98;;;20.00;99.90;;;;;;5014528;28;20117;-59
2021/06/17 04:04:21;;;;;;;9.48;8.45;;;20.10;99.90;;;;;;5019212;28;20021;-60
2021/06/17 04:06:53;;;;;;;12.77;8.63;;;20.10;99.90;;;;;;5017689;28;20522;-61
2021/06/17 04:09:28;;;;;;;12.77;8.18;;;20.20;99.90;;;;;;5015376;28;20025;-60
2021/06/17 04:12:09;;;;;;;11.05;8.77;;;20.20;99.90;;;;;;5007660;28;20120;-60
2021/06/17 04:14:37;;;;;;;24.20;8.05;;;20.30;99.90;;;;;;5006263;28;20393;-61
2021/06/17 04:17:05;;;;;;;11.70;7.93;;;20.30;99.90;;;;;;5023156;28;20400;-61
2021/06/17 04:19:33;;;;;;;11.77;8.23;;;20.40;99.90;;;;;;5015363;28;20502;-62
2021/06/17 04:22:03;;;;;;;12.10;8.70;;;20.40;99.90;;;;;;5009341;28;20080;-63
2021/06/17 04:24:32;;;;;;;11.90;8.57;;;20.50;99.90;;;;;;5019449;28;20109;-63
2021/06/17 04:26:59;;;;;;;11.32;8.38;;;20.50;99.90;;;;;;5013101;28;20040;-61
2021/06/17 04:29:27;;;;;;;13.77;8.38;;;20.60;99.90;;;;;;5015380;28;20395;-62
2021/06/17 04:31:54;;;;;;;15.88;8.68;;;20.60;99.90;;;;;;5011915;28;20379;-59
2021/06/17 04:34:22;;;;;;;24.42;9.02;;;20.60;99.90;;;;;;5013234;28;20371;-62
2021/06/17 04:36:48;;;;;;;13.52;8.85;;;20.70;99.90;;;;;;5010980;28;20034;-62
2021/06/17 04:39:15;;;;;;;14.13;9.00;;;20.70;99.90;;;;;;5010130;28;20384;-63
2021/06/17 04:41:42;;;;;;;12.80;8.68;;;20.80;99.90;;;;;;5010698;28;20026;-59
2021/06/17 04:44:08;;;;;;;13.50;8.60;;;20.80;99.90;;;;;;5018691;28;20398;-59
2021/06/17 04:46:35;;;;;;;18.92;9.70;;;20.80;99.90;;;;;;5008583;28;20101;-61
2021/06/17 04:49:02;;;;;;;10.23;8.10;;;20.90;99.90;;;;;;5018446;28;20088;-60
2021/06/17 04:51:33;;;;;;;15.77;8.95;;;20.90;99.90;;;;;;5020774;28;20040;-59
2021/06/17 04:53:59;;;;;;;13.25;8.25;;;20.90;99.90;;;;;;5020674;28;20080;-60
2021/06/17 04:56:24;;;;;;;14.75;9.13;;;21.00;99.90;;;;;;5015214;28;20130;-59
2021/06/17 04:58:50;;;;;;;13.27;8.85;;;21.00;99.90;;;;;;5013499;28;20152;-61
2021/06/17 05:01:18;;;;;;;16.85;8.50;;;21.00;99.90;;;;;;5005364;28;20080;-62
2021/06/17 05:03:45;;;;;;;15.18;8.13;;;21.10;99.90;;;;;;5014679;28;20022;-59
2021/06/17 05:06:11;;;;;;;18.70;9.82;;;21.20;99.90;;;;;;5012914;28;20026;-62
2021/06/17 05:11:22;;;;;;;15.20;8.35;;;21.20;99.90;;;;;;5017409;28;20041;-60
2021/06/17 05:13:48;;;;;;;16.33;8.98;;;21.30;99.90;;;;;;5014060;28;20042;-61
2021/06/17 05:16:13;;;;;;;12.98;8.35;;;21.30;99.90;;;;;;5012809;28;20034;-59
2021/06/17 05:18:39;;;;;;;14.80;8.30;;;21.40;99.90;;;;;;5011707;28;20044;-60
2021/06/17 05:21:05;;;;;;;16.55;8.30;;;21.40;99.90;;;;;;5011598;28;20093;-61
2021/06/17 05:23:31;;;;;;;13.95;9.05;;;21.50;99.90;;;;;;5012000;28;20053;-61
2021/06/17 05:25:58;;;;;;;10.18;8.05;;;21.50;99.90;;;;;;5021892;28;20025;-60
2021/06/17 05:28:25;;;;;;;9.50;7.22;;;21.60;99.90;;;;;;5015133;28;20641;-61
2021/06/17 05:30:53;;;;;;;24.38;10.25;;;21.60;99.90;;;;;;5015202;28;20092;-61
2021/06/17 05:33:19;;;;;;;16.90;7.85;;;21.60;99.90;;;;;;5015273;28;20018;-62
2021/06/17 05:35:46;;;;;;;9.45;7.20;;;21.70;99.90;;;;;;5017394;28;20558;-59
2021/06/17 05:38:16;;;;;;;13.88;7.60;;;21.80;99.90;;;;;;5011248;28;20080;-61
2021/06/17 05:40:41;;;;;;;13.63;7.88;;;21.90;99.90;;;;;;5010938;28;20116;-63
2021/06/17 05:43:07;;;;;;;10.30;6.72;;;21.90;99.90;;;;;;5011292;28;20092;-63
2021/06/17 05:45:32;;;;;;;11.60;6.55;;;22.00;99.90;;;;;;5011172;28;20030;-63
2021/06/17 05:47:58;;;;;;;17.15;6.80;;;22.20;99.90;;;;;;5011821;28;20392;-64
2021/06/17 05:50:24;;;;;;;11.57;6.55;;;22.30;99.90;;;;;;5012299;28;20101;-63
2021/06/17 05:52:49;;;;;;;9.55;7.03;;;22.50;99.90;;;;;;5010609;28;20050;-63
2021/06/17 05:55:15;;;;;;;15.02;7.18;;;22.60;99.90;;;;;;5028225;28;20392;-64
2021/06/17 05:57:41;;;;;;;10.50;6.65;;;22.80;99.90;;;;;;5027790;28;20037;-64
2021/06/17 06:00:08;;;;;;;12.57;7.13;;;23.00;99.90;;;;;;5009590;28;20067;-63
2021/06/17 06:02:35;;;;;;;13.57;7.32;;;23.10;99.90;;;;;;5002650;28;20074;-64
2021/06/17 06:05:01;;;;;;;14.38;6.05;;;23.20;99.90;;;;;;5028446;28;20025;-64
2021/06/17 06:07:26;;;;;;;9.52;6.38;;;23.40;99.90;;;;;;5022585;28;20084;-64
2021/06/17 06:09:52;;;;;;;12.88;6.78;;;23.40;99.90;;;;;;5027101;28;20025;-64
2021/06/17 06:12:17;;;;;;;11.88;6.28;;;23.50;99.90;;;;;;5009774;28;20034;-64
2021/06/17 06:14:43;;;;;;;12.00;6.68;;;23.50;99.90;;;;;;5010466;28;20104;-64
2021/06/17 06:17:09;;;;;;;10.32;6.90;;;23.50;99.90;;;;;;5011789;28;20021;-64
2021/06/17 06:19:35;;;;;;;15.93;6.60;;;23.50;99.90;;;;;;5012126;28;20026;-64
2021/06/17 06:22:06;;;;;;;9.50;6.78;;;23.60;99.90;;;;;;5012910;28;20029;-64
2021/06/17 06:24:33;;;;;;;13.45;7.38;;;23.60;99.90;;;;;;5028581;28;20113;-64
2021/06/17 06:27:00;;;;;;;11.63;6.50;;;23.70;99.90;;;;;;5030588;28;20025;-64
2021/06/17 06:29:27;;;;;;;12.52;6.63;;;23.70;99.90;;;;;;5022342;28;20030;-64
2021/06/17 06:31:52;;;;;;;11.23;6.72;;;23.80;99.90;;;;;;5012056;28;20029;-64
2021/06/17 06:34:18;;;;;;;11.98;7.03;;;23.80;99.90;;;;;;5011988;28;20037;-64
2021/06/17 06:36:43;;;;;;;12.85;6.15;;;23.90;99.90;;;;;;5011694;28;20017;-64
2021/06/17 06:39:09;;;;;;;10.63;7.00;;;23.90;99.90;;;;;;5026179;28;20029;-64
2021/06/17 06:41:35;;;;;;;13.15;6.22;;;24.00;99.90;;;;;;5030635;28;20303;-64
2021/06/17 06:44:01;;;;;;;15.30;6.50;;;24.10;99.90;;;;;;5028772;28;20269;-64
2021/06/17 06:46:26;;;;;;;11.05;6.35;;;24.10;99.90;;;;;;5030274;28;20026;-63
2021/06/17 06:48:52;;;;;;;14.27;6.57;;;24.10;99.90;;;;;;5030601;28;20025;-64
2021/06/17 06:51:18;;;;;;;11.52;6.15;;;24.20;99.90;;;;;;5027554;28;20030;-64
2021/06/17 06:53:43;;;;;;;14.10;8.30;;;24.30;99.90;;;;;;5011478;28;20488;-64
2021/06/17 06:56:09;;;;;;;9.80;6.78;;;24.30;99.90;;;;;;5011254;28;20040;-64
2021/06/17 06:58:34;;;;;;;11.82;6.95;;;24.40;99.90;;;;;;5011686;28;20034;-63
2021/06/17 07:01:00;;;;;;;11.90;6.80;;;24.40;99.90;;;;;;5021952;28;20103;-63
2021/06/17 07:03:25;;;;;;;11.82;7.30;;;24.50;99.90;;;;;;5029845;28;20033;-64
2021/06/17 07:05:51;;;;;;;14.13;6.60;;;24.60;99.90;;;;;;5023501;28;20507;-65
2021/06/17 07:08:17;;;;;;;18.95;6.85;;;24.70;99.90;;;;;;5010519;28;20097;-64
2021/06/17 07:10:46;;;;;;;7.90;5.93;;;24.80;99.90;;;;;;5010581;28;20068;-64
2021/06/17 07:13:12;;;;;;;20.23;8.40;;;24.90;99.90;;;;;;5011981;28;20053;-64
2021/06/17 07:15:37;;;;;;;14.00;7.50;;;24.90;99.90;;;;;;5019692;28;20523;-64
2021/06/17 07:18:04;;;;;;;11.38;6.70;;;25.10;99.90;;;;;;5029594;28;20116;-64
2021/06/17 07:20:29;;;;;;;9.70;6.13;;;25.20;99.90;;;;;;5028948;28;20856;-65
2021/06/17 07:22:56;;;;;;;9.88;6.82;;;25.20;99.90;;;;;;5015358;28;20030;-64
2021/06/17 07:25:23;;;;;;;10.73;6.40;;;25.30;99.90;;;;;;5029128;28;20512;-65
2021/06/17 07:27:49;;;;;;;9.25;6.53;;;25.30;99.90;;;;;;5029747;28;20033;-65
2021/06/17 07:30:15;;;;;;;11.82;6.50;;;25.40;99.90;;;;;;5022504;28;20022;-65
2021/06/17 07:32:41;;;;;;;13.25;6.57;;;25.50;99.90;;;;;;5010253;28;20055;-65
2021/06/17 07:35:06;;;;;;;11.20;5.88;;;25.50;99.90;;;;;;5010072;28;20373;-64
2021/06/17 07:37:32;;;;;;;15.73;6.03;;;25.50;99.90;;;;;;5009901;28;20028;-64
2021/06/17 07:39:58;;;;;;;9.15;5.78;;;25.60;99.90;;;;;;5010324;28;20049;-65
2021/06/17 07:42:23;;;;;;;10.30;5.82;;;25.70;99.90;;;;;;5009993;28;20403;-65
2021/06/17 07:44:51;;;;;;;18.63;6.13;;;25.80;99.90;;;;;;5010051;28;20431;-65
2021/06/17 07:47:16;;;;;;;8.52;5.70;;;25.80;99.90;;;;;;5027038;28;20025;-65
2021/06/17 07:49:42;;;;;;;9.48;6.03;;;25.90;99.90;;;;;;5029058;28;20037;-65
2021/06/17 07:52:07;;;;;;;12.10;5.63;;;26.10;99.90;;;;;;5020619;28;20037;-65
2021/06/17 07:54:33;;;;;;;9.25;5.80;;;26.10;99.90;;;;;;5026211;28;20033;-65
2021/06/17 07:56:59;;;;;;;13.35;6.03;;;26.20;99.90;;;;;;5028601;28;20395;-65
2021/06/17 07:59:26;;;;;;;8.88;5.72;;;26.20;99.90;;;;;;5029837;28;20040;-65
2021/06/17 08:01:52;;;;;;;15.10;5.57;;;26.40;99.90;;;;;;5022263;28;20034;-65
2021/06/17 08:04:18;;;;;;;9.73;5.30;;;26.50;99.90;;;;;;5028807;28;20033;-64
2021/06/17 08:06:44;;;;;;;8.82;5.28;;;26.60;99.90;;;;;;5029113;28;20371;-65
2021/06/17 08:09:10;;;;;;;12.07;5.65;;;26.70;99.90;;;;;;5024850;28;20026;-65
2021/06/17 08:11:37;;;;;;;8.63;4.93;;;26.80;99.90;;;;;;5021284;28;20034;-65
2021/06/17 08:14:03;;;;;;;14.88;5.78;;;26.90;99.90;;;;;;5014462;28;20487;-65
2021/06/17 08:16:29;;;;;;;7.20;5.55;;;26.90;99.90;;;;;;5009739;28;20050;-65
2021/06/17 08:18:55;;;;;;;7.65;5.15;;;27.00;99.90;;;;;;5010160;28;20073;-65
2021/06/17 08:21:22;;;;;;;11.93;5.65;;;27.00;99.90;;;;;;5010239;28;20030;-65
2021/06/17 08:23:47;;;;;;;8.68;5.32;;;27.20;99.90;;;;;;5011298;28;20053;-66
2021/06/17 08:26:13;;;;;;;13.02;4.97;;;27.30;99.90;;;;;;5013895;28;20053;-65
2021/06/17 08:28:38;;;;;;;11.57;4.85;;;27.40;99.90;;;;;;5014204;28;20030;-65
2021/06/17 08:31:04;;;;;;;9.75;5.70;;;27.50;99.90;;;;;;5014052;28;20118;-64
2021/06/17 08:33:33;;;;;;;12.15;5.45;;;27.60;99.90;;;;;;5013934;28;20116;-65
2021/06/17 08:36:02;;;;;;;11.35;5.85;;;27.70;99.90;;;;;;5013238;28;20487;-65
2021/06/17 08:38:28;;;;;;;14.48;5.47;;;27.80;99.90;;;;;;5014011;28;20034;-66
2021/06/17 08:40:54;;;;;;;9.98;5.45;;;27.90;99.90;;;;;;5013946;28;20029;-66
2021/06/17 08:43:20;;;;;;;12.27;5.60;;;28.10;99.90;;;;;;5014071;28;20033;-66
2021/06/17 08:45:45;;;;;;;14.40;5.78;;;28.10;99.90;;;;;;5026955;28;20380;-66
2021/06/17 08:48:11;;;;;;;7.38;5.10;;;28.30;99.90;;;;;;5032198;28;20025;-65
2021/06/17 08:50:37;;;;;;;6.65;5.70;;;28.30;99.90;;;;;;5032674;28;20083;-65
2021/06/17 08:53:02;;;;;;;12.55;5.60;;;28.40;99.90;;;;;;5029964;28;20038;-65
2021/06/17 08:55:29;;;;;;;10.18;5.85;;;28.50;99.90;;;;;;5032678;28;20411;-65
2021/06/17 08:57:56;;;;;;;9.90;5.65;;;28.70;99.90;;;;;;5027906;28;20022;-65
2021/06/17 09:00:23;;;;;;;10.90;5.55;;;28.70;99.90;;;;;;5013503;28;20037;-65
2021/06/17 09:03:08;;;;;;;8.70;5.20;;;28.70;99.90;;;;;;5013309;28;20044;-65
2021/06/17 09:05:38;;;;;;;15.27;6.22;;;28.80;99.90;;;;;;5013489;28;20026;-65
2021/06/17 09:08:05;;;;;;;11.93;5.45;;;28.90;99.90;;;;;;5013772;28;20048;-65
2021/06/17 09:10:31;;;;;;;11.32;6.10;;;29.00;99.90;;;;;;5013284;28;20046;-65
2021/06/17 09:12:59;;;;;;;16.90;6.38;;;29.10;99.90;;;;;;5013326;28;20632;-65
2021/06/17 09:15:43;;;;;;;10.18;5.30;;;29.20;99.90;;;;;;5029728;28;20029;-65
2021/06/17 09:18:14;;;;;;;8.75;5.20;;;29.30;99.90;;;;;;5013867;28;20033;-65
2021/06/17 09:20:49;;;;;;;10.05;5.28;;;29.40;99.90;;;;;;5013199;28;20411;-65
2021/06/17 09:23:27;;;;;;;9.73;5.75;;;29.60;99.90;;;;;;5011686;28;20034;-65
2021/06/17 09:26:01;;;;;;;8.50;5.30;;;29.60;99.90;;;;;;5012830;28;20022;-65
2021/06/17 09:28:27;;;;;;;;;;;29.80;99.90;;;;;;5013385;28;20096;-65
2021/06/17 09:30:54;;;;;;;13.48;4.72;;;29.90;99.90;;;;;;5030938;28;19966;-65
2021/06/17 09:33:24;;;;;;;8.40;5.05;;;30.00;99.90;;;;;;5031465;28;20041;-65
2021/06/17 09:35:56;;;;;;;10.00;5.25;;;30.10;99.90;;;;;;5031261;28;20044;-63
2021/06/17 09:38:23;;;;;;;10.30;5.70;;;30.30;99.90;;;;;;5020017;28;20091;-65
2021/06/17 09:40:50;;;;;;;6.70;4.93;;;30.40;99.90;;;;;;5013014;28;20030;-65
2021/06/17 09:43:28;;;;;;;6.80;4.40;;;30.50;99.90;;;;;;5012670;28;20036;-65
2021/06/17 09:46:02;;;;;;;5.55;4.50;;;30.70;99.90;;;;;;5006056;28;20072;-65
2021/06/17 09:48:32;;;;;;;5.47;4.15;;;30.80;99.90;;;;;;5012350;28;20038;-65
2021/06/17 09:50:58;;;;;;;8.18;4.53;;;31.00;99.90;;;;;;5012339;28;20033;-65
2021/06/17 09:53:25;;;;;;;6.10;4.75;;;31.10;99.90;;;;;;5020167;28;20029;-65
2021/06/17 09:55:52;;;;;;;4.93;4.05;;;31.30;99.90;;;;;;5023235;28;20095;-65
2021/06/17 09:58:37;;;;;;;6.85;4.35;;;31.40;99.90;;;;;;5006027;28;20030;-65
2021/06/17 10:01:05;;;;;;;7.22;4.75;;;31.70;99.90;;;;;;5008714;28;20040;-65
2021/06/17 10:03:31;;;;;;;7.57;4.28;;;31.80;99.90;;;;;;5012453;28;20018;-65
2021/06/17 10:05:59;;;;;;;12.10;4.70;;;32.00;99.90;;;;;;5011404;28;20112;-65
2021/06/17 10:08:25;;;;;;;9.50;5.10;;;32.10;99.90;;;;;;5019347;28;20030;-65
2021/06/17 10:10:51;;;;;;;7.28;5.22;;;32.30;99.90;;;;;;5031152;28;20087;-66
2021/06/17 10:13:19;;;;;;;8.45;5.35;;;32.30;99.90;;;;;;5031855;28;20029;-64
2021/06/17 10:15:48;;;;;;;10.65;5.53;;;32.40;99.90;;;;;;5014017;28;20526;-65
2021/06/17 10:18:13;;;;;;;5.95;4.93;;;32.50;99.00;;;;;;5012432;28;20029;-65
2021/06/17 10:20:40;;;;;;;10.10;4.95;;;32.60;98.80;;;;;;5012625;28;20411;-65
2021/06/17 10:23:06;;;;;;;9.25;5.07;;;32.70;99.90;;;;;;5020178;28;20403;-65
2021/06/17 10:25:35;;;;;;;12.60;5.75;;;32.80;99.00;;;;;;5030437;28;20022;-66
2021/06/17 10:28:04;;;;;;;6.90;5.30;;;32.90;99.90;;;;;;5030601;28;20067;-66
2021/06/17 10:30:44;;;;;;;13.60;5.15;;;33.10;99.30;;;;;;5018464;28;20103;-65
2021/06/17 10:33:31;;;;;;;10.35;5.53;;;33.30;98.30;;;;;;5010804;28;20026;-65
2021/06/17 10:36:22;;;;;;;9.07;4.70;;;33.40;97.90;;;;;;5011567;28;20137;-65
2021/06/17 10:39:12;;;;;;;11.70;5.03;;;33.60;98.10;;;;;;5018272;28;20499;-65
2021/06/17 10:41:47;;;;;;;7.85;4.30;;;33.70;97.40;;;;;;5030596;28;20060;-66
2021/06/17 10:44:36;;;;;;;10.10;4.25;;;33.80;96.00;;;;;;5028610;28;20100;-65
2021/06/17 10:47:05;;;;;;;5.90;4.43;;;34.10;95.70;;;;;;5006502;28;20034;-65
2021/06/17 10:49:48;;;;;;;4.30;3.90;;;34.10;96.60;;;;;;5016187;28;20071;-65
2021/06/17 10:52:28;;;;;;;7.85;4.40;;;34.10;94.10;;;;;;5022336;28;20488;-65
2021/06/17 10:55:05;;;;;;;8.95;4.90;;;34.10;93.10;;;;;;5008317;28;20061;-65
2021/06/17 11:02:58;;;;;;;9.40;4.22;;;34.50;93.20;;;;;;5015523;28;20037;-65
2021/06/17 11:05:33;;;;;;;7.18;4.38;;;34.60;91.70;;;;;;5010996;28;20351;-65
2021/06/17 11:08:19;;;;;;;7.88;4.32;;;34.60;91.00;;;;;;5011700;28;20462;-65
2021/06/17 11:10:47;;;;;;;4.25;3.78;;;34.90;92.20;;;;;;5018235;28;20033;-65
2021/06/17 11:13:26;;;;;;;5.18;3.70;;;35.00;91.40;;;;;;5013791;28;20030;-65
2021/06/17 11:15:53;;;;;;;5.78;4.38;;;35.10;91.50;;;;;;5013062;28;20123;-65
2021/06/17 11:18:40;;;;;;;7.22;5.70;;;35.20;90.60;;;;;;5015023;28;20022;-65
2021/06/17 11:21:26;;;;;;;6.45;3.70;;;35.30;89.60;;;;;;5005778;28;20033;-65
2021/06/17 11:24:13;;;;;;;5.57;4.55;;;35.30;88.40;;;;;;5017213;28;20033;-66
2021/06/17 11:26:41;;;;;;;7.40;4.60;;;35.10;90.00;;;;;;5029221;28;20371;-65
2021/06/17 11:29:09;;;;;;;5.70;4.30;;;35.20;87.50;;;;;;5010877;28;20458;-65
2021/06/17 11:31:40;;;;;;;11.80;4.28;;;35.30;89.80;;;;;;5022089;28;20120;-66
2021/06/17 11:34:07;;;;;;;8.57;5.03;;;35.60;85.90;;;;;;5017035;28;20080;-64
2021/06/17 11:36:33;;;;;;;7.47;4.38;;;35.60;84.50;;;;;;5020119;28;20048;-64
2021/06/17 11:39:02;;;;;;;7.75;4.10;;;35.60;88.00;;;;;;5019249;28;20406;-64
2021/06/17 11:41:31;;;;;;;7.38;4.90;;;35.70;88.40;;;;;;5012850;28;20055;-64
2021/06/17 11:44:04;;;;;;;8.63;4.53;;;35.90;87.30;;;;;;5007364;28;20022;-65
2021/06/17 11:46:38;;;;;;;8.77;4.78;;;35.90;86.80;;;;;;5018488;28;20494;-64
2021/06/17 11:49:06;;;;;;;5.68;4.50;;;36.00;84.90;;;;;;5003874;28;20373;-65
2021/06/17 11:51:51;;;;;;;7.65;4.03;;;36.00;82.10;;;;;;5010750;28;20064;-65
2021/06/17 11:54:21;;;;;;;6.82;4.63;;;36.30;81.50;;;;;;5009606;28;20034;-65
2021/06/17 11:56:49;;;;;;;5.60;4.50;;;36.50;80.60;;;;;;5013355;28;20030;-65
2021/06/17 11:59:16;;;;;;;8.38;4.38;;;36.50;81.40;;;;;;5013404;28;20037;-64
2021/06/17 12:02:05;;;;;;;9.05;5.07;;;36.60;83.20;;;;;;5018822;28;20446;-64
2021/06/17 12:04:52;;;;;;;5.40;4.72;;;36.70;85.30;;;;;;5007858;28;20025;-65
2021/06/17 12:07:23;;;;;;;11.88;5.25;;;36.50;79.50;;;;;;5003421;28;20022;-65
2021/06/17 12:09:49;;;;;;;7.97;4.55;;;36.50;81.60;;;;;;5013482;28;20108;-64
2021/06/17 12:12:16;;;;;;;9.38;5.43;;;36.60;83.60;;;;;;5015253;28;20120;-64
2021/06/17 12:14:44;;;;;;;7.90;5.03;;;36.60;81.90;;;;;;5009000;28;20531;-64
2021/06/17 12:17:10;;;;;;;8.27;4.97;;;36.40;85.20;;;;;;5003394;28;20058;-65
2021/06/17 12:19:36;;;;;;;11.05;6.10;;;36.50;82.80;;;;;;5015747;28;20152;-63
2021/06/17 12:22:08;;;;;;;8.23;5.40;;;36.40;84.20;;;;;;5009699;28;20117;-64
2021/06/17 12:24:35;;;;;;;10.68;5.28;;;36.50;82.30;;;;;;5020903;28;20029;-64
2021/06/17 12:27:01;;;;;;;13.30;5.60;;;36.70;87.50;;;;;;5012866;28;20030;-63
2021/06/17 12:29:26;;;;;;;12.25;6.22;;;36.90;85.10;;;;;;5014470;28;20390;-64
2021/06/17 12:31:56;;;;;;;8.30;5.40;;;36.90;86.10;;;;;;5011387;28;20116;-64
2021/06/17 12:34:22;;;;;;;11.30;6.30;;;37.00;86.00;;;;;;5009362;28;20088;-64
2021/06/17 12:37:07;;;;;;;8.77;6.28;;;36.90;82.10;;;;;;5010540;28;20037;-64
2021/06/17 12:39:33;;;;;;;9.88;6.57;;;37.10;81.80;;;;;;5011525;28;20053;-63
2021/06/17 12:41:59;;;;;;;11.52;6.55;;;37.10;84.30;;;;;;5014182;28;20084;-64
2021/06/17 12:44:39;;;;;;;8.20;6.20;;;37.30;80.20;;;;;;5019703;28;20473;-63
2021/06/17 12:47:13;;;;;;;13.95;7.55;;;37.10;85.50;;;;;;5008881;28;20034;-64
2021/06/17 12:52:35;;;;;;;8.73;6.07;;;37.10;85.20;;;;;;5018852;28;20534;-64
2021/06/17 12:55:02;;;;;;;12.90;6.28;;;37.40;81.30;;;;;;5023994;28;20025;-64
2021/06/17 12:57:28;;;;;;;10.70;7.28;;;37.40;80.40;;;;;;5024099;28;20076;-64
2021/06/17 13:00:04;;;;;;;9.50;6.80;;;37.40;84.00;;;;;;5013433;28;20038;-65